Nearby METAR Reports

Actuele Vliegveldwaarnemingen NL (METAR).Zie KNMI uitleg METAR hier

EHAM - Amsterdam/Schiph, Netherlands
Distance from station: ONO 18km
Updated: 15/10/2019 23:55
Lichte regen, Showers, Meestal bewolkt
Lichte regen, Showers, Meestal bewolkt
 Wind van ZW
Wind: ZW 9 km/h
Temperatuur: 13°C
Dauwpunt: 12°C
Vochtigheid: 94%
Barometer: 1007 hPa
Overzicht: Lichte regen, Showers
Clouds: Meestal bewolkt
Visibility: 10 km
Cloud details: Few Clouds 274 m
Gedeeltelijk bewolkt 518 m
Meestal bewolkt 1433 m
2019/10/15 21:55 EHAM 152155Z 23005KT 9999 -SHRA FEW009 SCT017TCU BKN047 13/12 Q1007 NOSIG
EHKD - DE KOOY/DE KOOY
Updated: 16/10/2019 00:19
Meestal bewolkt
Meestal bewolkt
 Wind van ZZW
Wind: ZZW 7 km/h
Temperatuur: 12°C
Dauwpunt: 12°C
Vochtigheid: 100%
Barometer: 1006 hPa
Clouds: Meestal bewolkt
Visibility: 10 km
Cloud details: Few Clouds 366 m
Gedeeltelijk bewolkt 732 m
Meestal bewolkt 1219 m
2019/10/15 22:19 EHKD 152219Z AUTO 20004KT 9999 FEW012 SCT024 BKN040 12/12 Q1006 WHT
 
EHLW - LEEUWARDEN/LEEUWARDEN
Updated: 16/10/2019 00:09
Light drizzle, Zwaar bewolkt
Light drizzle, Zwaar bewolkt
 Wind van ZZW
Wind: ZZW 15 km/h
Temperatuur: 13°C
Dauwpunt: 13°C
Vochtigheid: 100%
Barometer: 1006 hPa
Overzicht: Light Drizzle
Clouds: Zwaar bewolkt
Visibility: 5 km
Cloud details: Gedeeltelijk bewolkt 152 m
Meestal bewolkt 213 m
Few Clouds 457 m
Zwaar bewolkt 975 m
2019/10/15 22:09 EHLW 152209Z AUTO 20008KT 160V220 5000 -DZ SCT005 BKN007 FEW015CB OVC032 13/13 Q1006 YLO
EHVK - VOLKEL/VOLKEL
Updated: 16/10/2019 00:16
Meestal bewolkt
Meestal bewolkt
 Wind van ZW
Wind: ZW 13 km/h
Temperatuur: 13°C
Dauwpunt: 12°C
Vochtigheid: 94%
Barometer: 1008 hPa
Clouds: Meestal bewolkt
Visibility: 10 km
Cloud details: Few Clouds 427 m
Gedeeltelijk bewolkt 518 m
Meestal bewolkt 1158 m
2019/10/15 22:16 EHVK 152216Z AUTO 22007KT 9999 FEW014 SCT017 BKN038 13/12 Q1008 WHT
 
EHFS - VLISSINGEN
Updated: 15/10/2019 23:55
Gedeeltelijk bewolkt
Gedeeltelijk bewolkt
 Wind van Z
Wind: Z 15 km/h
Temperatuur: 13°C
Dauwpunt: 11°C
Vochtigheid: 88%
Barometer: 1007 hPa
Clouds: Gedeeltelijk bewolkt
Visibility: 10 km
2019/10/15 21:55 EHFS 152155Z AUTO 18008KT 9999 NSC 13/11 Q1007 W///H///
EHEH - EINDHOVEN/EINDHOVEN
Updated: 15/10/2019 23:55
Meestal bewolkt
Meestal bewolkt
 Wind van ZZW
Wind: ZZW 11 km/h
Temperatuur: 13°C
Dauwpunt: 11°C
Vochtigheid: 88%
Barometer: 1008 hPa
Clouds: Meestal bewolkt
Visibility: 10 km
Cloud details: Few Clouds 1920 m
Gedeeltelijk bewolkt 2103 m
Meestal bewolkt 2408 m
2019/10/15 21:55 EHEH 152155Z AUTO 21006KT 9999 FEW063 SCT069 BKN079 13/11 Q1008 BLU
 
EHGR - GILZE-RIJEN/GILZE-RIJEN
Updated: 15/10/2019 23:55
Meestal bewolkt
Meestal bewolkt
 Wind van ZZW
Wind: ZZW 9 km/h
Temperatuur: 13°C
Dauwpunt: 11°C
Vochtigheid: 88%
Barometer: 1008 hPa
Clouds: Meestal bewolkt
Visibility: 10 km
Cloud details: Gedeeltelijk bewolkt 1676 m
Meestal bewolkt 1981 m
Meestal bewolkt 2164 m
2019/10/15 21:55 EHGR 152155Z AUTO 20005KT 180V240 9999 SCT055 BKN065 BKN071 13/11 Q1008 BLU
EHDL - ARNHEM/DEELEN
Updated: 15/10/2019 23:55
Mist, Zwaar bewolkt
Mist, Zwaar bewolkt
 Wind van WZW
Wind: WZW 9 km/h
Temperatuur: 13°C
Dauwpunt: 13°C
Vochtigheid: 100%
Barometer: 1008 hPa
Overzicht: Mist
Clouds: Zwaar bewolkt
Visibility: 5 km
Cloud details: Zwaar bewolkt 853 m
2019/10/15 21:55 EHDL 152155Z AUTO 24005KT 210V300 5000 BR OVC028 13/13 Q1008 WHT
 
EHBK - MAASTRICHT/MAASTRICHT-AACHEN
Updated: 15/10/2019 23:55
Few Clouds
Few Clouds
 Wind van ZZW
Wind: ZZW 15 km/h
Temperatuur: 12°C
Dauwpunt: 11°C
Vochtigheid: 94%
Barometer: 1009 hPa
Clouds: Few Clouds
Visibility: 10 km
Cloud details: Few Clouds 335 m
Few Clouds 457 m
2019/10/15 21:55 EHBK 152155Z AUTO 21008KT 9999 FEW011 FEW015CB 12/11 Q1009